createdAt,value
2023-07-29T00:00:31.014Z,100468.28
2023-07-29T00:05:33.544Z,100457.53
2023-07-29T00:10:38.670Z,100446.84
2023-07-29T00:15:42.535Z,100456.44
2023-07-29T00:20:45.052Z,100472.25
2023-07-29T00:25:47.676Z,100466.84
2023-07-29T00:30:51.559Z,100465.84
2023-07-29T00:35:54.151Z,100456.81
2023-07-29T00:40:56.701Z,100454.91
2023-07-29T00:46:01.683Z,100461.09
2023-07-29T00:51:04.518Z,100439.84
2023-07-29T00:56:07.093Z,100445.16
2023-07-29T01:01:11.030Z,100446.81
2023-07-29T01:06:23.244Z,100443.22
2023-07-29T01:11:37.806Z,100432.50
2023-07-29T01:16:44.646Z,100426.31
2023-07-29T01:21:47.224Z,100444.94
2023-07-29T01:26:51.095Z,100439.66
2023-07-29T01:31:57.154Z,100430.84
2023-07-29T01:37:03.599Z,100427.34
2023-07-29T01:42:07.826Z,100433.66
2023-07-29T01:47:10.613Z,100428.47
2023-07-29T01:52:13.456Z,100432.09
2023-07-29T01:57:17.394Z,100431.34
2023-07-29T02:02:19.997Z,100423.38
2023-07-29T02:07:22.514Z,100423.38
2023-07-29T02:12:26.401Z,100423.41
2023-07-29T02:17:28.972Z,100420.81
2023-07-29T02:22:31.692Z,100422.66
2023-07-29T02:27:35.596Z,100422.66
2023-07-29T02:32:38.268Z,100427.13
2023-07-29T02:37:40.887Z,100429.84
2023-07-29T02:42:44.767Z,100420.22
2023-07-29T02:47:47.914Z,100417.59
2023-07-29T02:52:51.757Z,100420.28
2023-07-29T02:57:55.753Z,100426.53
2023-07-29T03:02:58.323Z,100424.81
2023-07-29T03:08:00.907Z,100420.38
2023-07-29T03:13:04.977Z,100420.41
2023-07-29T03:18:07.548Z,100436.41
2023-07-29T03:23:10.233Z,100438.19
2023-07-29T03:28:14.103Z,100427.63
2023-07-29T03:33:16.683Z,100424.13
2023-07-29T03:38:19.352Z,100417.03
2023-07-29T03:43:23.229Z,100409.06
2023-07-29T03:48:25.835Z,100418.72
2023-07-29T03:53:28.345Z,100407.09
2023-07-29T03:58:32.522Z,100397.28
2023-07-29T04:03:35.695Z,100395.56
2023-07-29T04:08:38.332Z,100397.25
2023-07-29T04:13:42.269Z,100408.69
2023-07-29T04:18:44.791Z,100400.69
2023-07-29T04:23:47.370Z,100390.13
2023-07-29T04:28:51.208Z,100390.19
2023-07-29T04:33:53.757Z,100388.50
2023-07-29T04:38:56.318Z,100391.22
2023-07-29T04:44:00.220Z,100389.53
2023-07-29T04:49:03.422Z,100385.28
2023-07-29T04:54:06.046Z,100374.78
2023-07-29T04:59:09.925Z,100366.97
2023-07-29T05:04:12.504Z,100385.81
2023-07-29T05:09:16.776Z,100379.00
2023-07-29T05:14:20.716Z,100373.06
2023-07-29T05:19:23.465Z,100367.00
2023-07-29T05:24:26.257Z,100376.06
2023-07-29T05:29:30.248Z,100370.91
2023-07-29T05:34:32.772Z,100379.03
2023-07-29T05:39:35.290Z,100374.75
2023-07-29T05:44:39.166Z,100379.28
2023-07-29T05:49:41.705Z,100359.88
2023-07-29T05:54:44.502Z,100341.34
2023-07-29T05:59:48.373Z,100362.75
2023-07-29T06:04:51.008Z,100348.66
2023-07-29T06:09:54.720Z,100344.34
2023-07-29T06:14:58.576Z,100340.91
2023-07-29T06:20:01.110Z,100335.66
2023-07-29T06:25:03.760Z,100335.78
2023-07-29T06:30:09.080Z,100336.91
2023-07-29T06:35:11.655Z,100337.03
2023-07-29T06:40:14.249Z,100335.31
2023-07-29T06:45:18.311Z,100328.22
2023-07-29T06:50:21.006Z,100319.31
2023-07-29T06:55:23.578Z,100313.03
2023-07-29T07:00:27.448Z,100310.38
2023-07-29T07:05:30.006Z,100304.09
2023-07-29T07:10:32.928Z,100300.53
2023-07-29T07:15:36.802Z,100305.88
2023-07-29T07:20:39.345Z,100319.19
2023-07-29T07:25:41.879Z,100304.00
2023-07-29T07:30:45.767Z,100302.19
2023-07-29T07:35:48.276Z,100298.59
2023-07-29T07:47:05.094Z,100291.22
2023-07-29T07:52:08.549Z,100283.94
2023-07-29T07:57:11.076Z,100289.13
2023-07-29T08:02:15.073Z,100290.75
2023-07-29T08:07:17.668Z,100305.91
2023-07-29T08:12:20.551Z,100302.25
2023-07-29T08:17:24.604Z,100299.53
2023-07-29T08:22:27.175Z,100305.88
2023-07-29T08:27:29.675Z,100297.03
2023-07-29T08:32:33.698Z,100288.94
2023-07-29T08:37:36.264Z,100289.69
2023-07-29T08:42:41.730Z,100294.97
2023-07-29T08:47:45.636Z,100291.38
2023-07-29T08:52:49.633Z,100279.63
2023-07-29T08:57:52.467Z,100284.06
2023-07-29T09:02:56.725Z,100284.94
2023-07-29T09:07:59.498Z,100284.94
2023-07-29T09:13:04.098Z,100280.53
2023-07-29T09:18:16.612Z,100278.75
2023-07-29T09:23:19.298Z,100288.69
2023-07-29T09:28:22.688Z,100287.00
2023-07-29T09:33:28.499Z,100291.41
2023-07-29T09:38:31.637Z,100289.59
2023-07-29T09:43:36.373Z,100280.66
2023-07-29T09:48:42.709Z,100274.28
2023-07-29T09:53:47.974Z,100271.47
2023-07-29T09:58:50.735Z,100275.75
2023-07-29T10:03:57.302Z,100271.13
2023-07-29T10:09:00.528Z,100256.75
2023-07-29T10:14:08.795Z,100256.69
2023-07-29T10:19:13.968Z,100256.63
2023-07-29T10:24:21.437Z,100252.00
2023-07-29T10:29:25.972Z,100245.59
2023-07-29T10:34:30.126Z,100242.84
2023-07-29T10:39:40.488Z,100241.03
2023-07-29T10:44:53.728Z,100232.19
2023-07-29T10:49:58.791Z,100230.34
2023-07-29T10:55:02.460Z,100237.53
2023-07-29T11:00:07.626Z,100227.72
2023-07-29T11:05:20.584Z,100232.19
2023-07-29T11:10:23.211Z,100216.03
2023-07-29T11:15:27.406Z,100207.94
2023-07-29T11:20:32.556Z,100197.97
2023-07-29T11:25:36.719Z,100201.56
2023-07-29T11:30:41.351Z,100197.94
2023-07-29T11:35:45.699Z,100204.13
2023-07-29T11:40:57.027Z,100195.72
2023-07-29T11:46:04.572Z,100195.34
2023-07-29T11:51:09.248Z,100189.81
2023-07-29T11:56:13.970Z,100202.19
2023-07-29T12:01:16.676Z,100217.38
2023-07-29T12:06:20.903Z,100219.13
2023-07-29T12:11:23.478Z,100228.13
2023-07-29T12:16:26.016Z,100220.22
2023-07-29T12:21:31.202Z,100222.13
2023-07-29T12:26:33.761Z,100219.66
2023-07-29T12:31:39.631Z,100280.09
2023-07-29T12:36:44.480Z,100304.72
2023-07-29T12:41:47.138Z,100271.56
2023-07-29T12:46:49.701Z,100246.84
2023-07-29T12:51:54.087Z,100241.59
2023-07-29T12:56:56.685Z,100238.97
2023-07-29T13:01:59.228Z,100234.53
2023-07-29T13:07:03.119Z,100239.84
2023-07-29T13:12:06.301Z,100238.94
2023-07-29T13:17:08.831Z,100254.06
2023-07-29T13:22:12.696Z,100245.09
2023-07-29T13:27:15.294Z,100244.09
2023-07-29T13:32:17.841Z,100241.38
2023-07-29T13:37:21.708Z,100235.94
2023-07-29T13:42:24.359Z,100234.97
2023-07-29T13:47:27.020Z,100227.75
2023-07-29T13:52:31.082Z,100217.88
2023-07-29T13:57:34.148Z,100230.38
2023-07-29T14:02:36.758Z,100216.88
2023-07-29T14:07:40.670Z,100237.50
2023-07-29T14:12:43.228Z,100224.16
2023-07-29T14:17:45.785Z,100225.03
2023-07-29T14:22:50.249Z,100219.56
2023-07-29T14:27:52.897Z,100218.53
2023-07-29T14:32:55.492Z,100221.16
2023-07-29T14:37:59.351Z,100217.53
2023-07-29T14:43:01.897Z,100196.88
2023-07-29T14:48:06.348Z,100203.81
2023-07-29T14:53:11.185Z,100191.84
2023-07-29T14:58:13.730Z,100201.38
2023-07-29T15:03:16.376Z,100199.22
2023-07-29T15:08:20.258Z,100202.56
2023-07-29T15:13:22.767Z,100200.63
2023-07-29T15:18:25.335Z,100182.50
2023-07-29T15:23:29.449Z,100188.47
2023-07-29T15:28:32.075Z,100191.19
2023-07-29T15:33:35.907Z,100191.22
2023-07-29T15:38:39.801Z,100181.28
2023-07-29T15:43:42.316Z,100178.56
2023-07-29T15:48:44.904Z,100189.31
2023-07-29T15:53:48.992Z,100199.00
2023-07-29T15:58:52.266Z,100199.84
2023-07-29T16:03:54.839Z,100192.72
2023-07-29T16:09:00.726Z,100181.19
2023-07-29T16:14:03.290Z,100170.22
2023-07-29T16:19:07.257Z,100187.22
2023-07-29T16:24:11.109Z,100192.44
2023-07-29T16:29:13.761Z,100195.28
2023-07-29T16:34:16.331Z,100209.09
2023-07-29T16:39:20.174Z,100220.22
2023-07-29T16:44:22.790Z,100233.56
2023-07-29T16:49:25.569Z,100225.50
2023-07-29T16:54:29.652Z,100228.50
2023-07-29T16:59:32.235Z,100216.22
2023-07-29T17:04:34.848Z,100219.00
2023-07-29T17:09:38.701Z,100229.72
2023-07-29T17:14:41.545Z,100277.31
2023-07-29T17:19:45.545Z,100265.75
2023-07-29T17:24:49.462Z,100249.69
2023-07-29T17:29:51.991Z,100255.91
2023-07-29T17:34:54.506Z,100250.56
2023-07-29T17:39:58.397Z,100263.91
2023-07-29T17:45:01.261Z,100279.09
2023-07-29T17:50:03.936Z,100275.53
2023-07-29T17:55:08.165Z,100275.53
2023-07-29T18:00:13.014Z,100271.97
2023-07-29T18:05:17.875Z,100270.25
2023-07-29T18:10:21.757Z,100270.25
2023-07-29T18:15:24.324Z,100267.50
2023-07-29T18:20:26.932Z,100271.97
2023-07-29T18:25:30.785Z,100293.38
2023-07-29T18:30:33.309Z,100297.84
2023-07-29T18:35:36.320Z,100304.13
2023-07-29T18:40:41.326Z,100293.41
2023-07-29T18:45:43.953Z,100284.47
2023-07-29T18:50:46.754Z,100287.09
2023-07-29T18:55:52.539Z,100295.13
2023-07-29T19:00:55.101Z,100311.16
2023-07-29T19:05:58.189Z,100311.13
2023-07-29T19:11:02.099Z,100314.69
2023-07-29T19:16:07.925Z,100325.31
2023-07-29T19:21:10.502Z,100335.94
2023-07-29T19:26:16.842Z,100341.25
2023-07-29T19:31:19.536Z,100347.41
2023-07-29T19:36:22.158Z,100342.91
2023-07-29T19:41:27.425Z,100357.13
2023-07-29T19:46:38.828Z,100357.09
2023-07-29T19:51:41.884Z,100353.47
2023-07-29T19:56:45.759Z,100352.50
2023-07-29T20:01:48.479Z,100357.81
2023-07-29T20:06:54.097Z,100385.31
2023-07-29T20:11:57.982Z,100370.81
2023-07-29T20:17:00.531Z,100384.06
2023-07-29T20:22:03.138Z,100387.50
2023-07-29T20:27:07.326Z,100377.72
2023-07-29T20:32:09.845Z,100379.53
2023-07-29T20:37:12.414Z,100386.66
2023-07-29T20:42:16.340Z,100389.34
2023-07-29T20:47:19.242Z,100400.06
2023-07-29T20:52:21.774Z,100416.00
2023-07-29T20:57:25.674Z,100403.53
2023-07-29T21:02:28.285Z,100407.09
2023-07-29T21:07:30.860Z,100409.78
2023-07-29T21:12:34.761Z,100401.88
2023-07-29T21:17:37.325Z,100393.94
2023-07-29T21:22:39.844Z,100396.63
2023-07-29T21:27:43.683Z,100390.41
2023-07-29T21:32:46.220Z,100411.78
2023-07-29T21:37:48.743Z,100398.44
2023-07-29T21:42:52.646Z,100401.97
2023-07-29T21:47:55.275Z,100401.06
2023-07-29T21:52:57.831Z,100409.88
2023-07-29T21:58:01.721Z,100399.19
2023-07-29T22:03:05.022Z,100408.03
2023-07-29T22:08:07.850Z,100412.38
2023-07-29T22:13:11.807Z,100414.97
2023-07-29T22:18:14.941Z,100421.09
2023-07-29T22:23:17.530Z,100425.44
2023-07-29T22:28:21.474Z,100423.56
2023-07-29T22:33:24.369Z,100425.25
2023-07-29T22:38:27.104Z,100419.88
2023-07-29T22:43:31.461Z,100427.78
2023-07-29T22:48:34.009Z,100427.66
2023-07-29T22:53:36.537Z,100440.88
2023-07-29T22:58:40.393Z,100434.50
2023-07-29T23:03:43.056Z,100443.28
2023-07-29T23:08:45.661Z,100435.25
2023-07-29T23:13:49.531Z,100432.53
2023-07-29T23:18:52.028Z,100435.13
2023-07-29T23:23:54.589Z,100439.47
2023-07-29T23:28:58.646Z,100430.47
2023-07-29T23:34:02.252Z,100433.00
2023-07-29T23:39:04.800Z,100431.13
2023-07-29T23:44:08.632Z,100437.25
2023-07-29T23:49:11.131Z,100434.53
2023-07-29T23:54:13.782Z,100433.56
2023-07-29T23:59:17.645Z,100436.06
